Time;durP1;ratioP1;P1;durP2;ratioP2;P2;SDS_P1;SDS_P2;PMS_P1;PMS_P2;Temp;Humidity;BMP_temperature;BMP_pressure;BME280_temperature;BME280_humidity;BME280_pressure;Samples;Min_cycle;Max_cycle;Signal;HPM_P1;HPM_P2
2023/07/05 00:01:58;;;;;;;12.63;11.50;;;;;;;25.44;52.66;95021.94;6160495;28;109386;-69
2023/07/05 00:05:03;;;;;;;11.33;10.43;;;;;;;25.46;52.22;95022.38;6132101;28;1248870;-69
2023/07/05 00:08:07;;;;;;;11.33;10.43;;;;;;;25.36;52.44;95015.50;6175165;28;109140;-68
2023/07/05 00:11:10;;;;;;;11.40;10.50;;;;;;;25.40;52.27;95021.81;6177873;28;109399;-70
2023/07/05 00:14:14;;;;;;;11.30;10.20;;;;;;;25.38;52.46;95022.13;6154742;28;109021;-68
2023/07/05 00:17:17;;;;;;;12.80;11.60;;;;;;;25.43;52.46;95023.03;6162634;28;109102;-70
2023/07/05 00:20:22;;;;;;;11.80;10.77;;;;;;;25.40;52.50;95027.16;6180285;28;109076;-68
2023/07/05 00:23:25;;;;;;;11.57;10.77;;;;;;;25.42;52.57;95030.28;6193119;28;109121;-69
2023/07/05 00:26:29;;;;;;;11.87;10.90;;;;;;;25.43;52.33;95028.41;6167302;28;109132;-69
2023/07/05 00:29:32;;;;;;;11.83;10.93;;;;;;;25.44;52.80;95030.75;6179377;28;109003;-69
2023/07/05 00:32:35;;;;;;;12.13;11.10;;;;;;;25.43;52.41;95034.53;6164538;28;109070;-69
2023/07/05 00:35:47;;;;;;;12.73;11.57;;;;;;;25.34;52.98;95031.09;6177063;28;109574;-70
2023/07/05 00:38:50;;;;;;;11.83;10.93;;;;;;;25.40;52.36;95035.19;6166639;28;111691;-69
2023/07/05 00:41:53;;;;;;;11.77;10.77;;;;;;;25.42;52.32;95046.38;6175793;28;109274;-69
2023/07/05 00:45:35;;;;;;;12.20;11.20;;;;;;;25.44;52.86;95052.19;6173305;28;109024;-69
2023/07/05 00:48:44;;;;;;;11.63;10.60;;;;;;;25.43;52.85;95047.94;6144720;28;109199;-69
2023/07/05 00:51:57;;;;;;;12.40;11.50;;;;;;;25.40;53.21;95048.59;6160944;28;109069;-69
2023/07/05 00:55:01;;;;;;;11.80;10.83;;;;;;;25.33;53.55;95038.34;6160302;28;109542;-69
2023/07/05 00:58:04;;;;;;;12.00;11.07;;;;;;;25.29;53.74;95047.38;6168666;28;109607;-69
2023/07/05 01:01:08;;;;;;;11.80;10.90;;;;;;;25.24;53.63;95044.91;6150587;28;109219;-69
2023/07/05 01:04:11;;;;;;;11.87;10.87;;;;;;;25.24;53.50;95047.56;6160556;28;109586;-68
2023/07/05 01:07:16;;;;;;;12.40;11.40;;;;;;;25.19;53.64;95037.03;6160816;28;108814;-67
2023/07/05 01:10:21;;;;;;;12.00;10.90;;;;;;;25.08;54.13;95024.03;6156854;28;109057;-67
2023/07/05 01:13:31;;;;;;;12.17;11.30;;;;;;;24.96;54.28;95029.31;6174620;28;109311;-68
2023/07/05 01:16:54;;;;;;;12.60;11.57;;;;;;;24.92;54.78;95019.59;6185971;28;109356;-69
2023/07/05 01:20:13;;;;;;;13.17;11.97;;;;;;;24.97;54.76;95014.81;6194836;28;109039;-69
2023/07/05 01:23:59;;;;;;;12.50;11.50;;;;;;;24.98;54.75;95010.25;6179208;28;110468;-69
2023/07/05 01:27:33;;;;;;;12.07;11.13;;;;;;;25.14;54.19;95010.44;6167567;28;109089;-69
2023/07/05 01:30:54;;;;;;;11.73;10.90;;;;;;;25.22;54.22;95009.63;6169409;28;109580;-69
2023/07/05 01:34:04;;;;;;;12.50;11.50;;;;;;;25.29;53.79;95007.19;6173446;28;109040;-68
2023/07/05 01:37:10;;;;;;;12.90;11.70;;;;;;;25.29;53.46;95007.19;6185236;28;109072;-69
2023/07/05 01:40:35;;;;;;;12.77;11.77;;;;;;;25.32;53.48;95014.56;6184000;28;109080;-72
2023/07/05 01:43:43;;;;;;;11.57;10.67;;;;;;;25.25;53.58;95007.06;6183719;28;109247;-70
2023/07/05 01:46:58;;;;;;;11.80;10.97;;;;;;;25.25;53.27;95004.41;6173385;28;109396;-70
2023/07/05 01:50:16;;;;;;;12.80;11.80;;;;;;;25.03;53.50;94993.97;6183643;28;109239;-69
2023/07/05 01:53:25;;;;;;;12.67;11.63;;;;;;;24.97;53.87;94993.41;6177634;28;109055;-70
2023/07/05 01:56:35;;;;;;;11.50;10.70;;;;;;;25.01;53.70;94993.53;6155704;28;109671;-68
2023/07/05 01:59:45;;;;;;;13.20;12.17;;;;;;;25.01;53.71;94993.53;6183146;28;109091;-71
2023/07/05 02:02:55;;;;;;;12.50;11.60;;;;;;;24.90;54.06;94995.81;6165628;28;109035;-69
2023/07/05 02:06:00;;;;;;;12.63;11.73;;;;;;;24.88;53.96;94989.22;6182079;28;109142;-69
2023/07/05 02:09:03;;;;;;;12.70;11.60;;;;;;;24.81;54.16;94984.38;6155470;28;109066;-68
2023/07/05 02:12:08;;;;;;;13.33;12.17;;;;;;;24.84;54.07;94982.94;6172073;28;109118;-69
2023/07/05 02:15:15;;;;;;;13.60;12.40;;;;;;;24.82;54.32;94983.25;6169611;28;110137;-69
2023/07/05 02:18:18;;;;;;;12.53;11.30;;;;;;;24.86;54.15;94981.50;6180625;28;109050;-69
2023/07/05 02:21:22;;;;;;;13.47;12.33;;;;;;;24.87;53.91;94979.63;6179605;28;109565;-68
2023/07/05 02:24:27;;;;;;;12.50;11.50;;;;;;;24.86;54.20;94986.06;6165880;28;109048;-73
2023/07/05 02:27:30;;;;;;;12.60;11.70;;;;;;;24.90;53.86;94982.44;6164058;28;109348;-70
2023/07/05 02:30:35;;;;;;;14.00;12.70;;;;;;;24.76;54.51;94987.25;6175295;28;109294;-70
2023/07/05 02:33:39;;;;;;;13.93;12.83;;;;;;;24.81;54.32;94986.25;6180647;28;109537;-70
2023/07/05 02:36:44;;;;;;;13.20;12.30;;;;;;;24.73;54.67;94986.00;6177029;28;109353;-70
2023/07/05 02:39:52;;;;;;;13.77;12.43;;;;;;;24.87;54.29;94983.09;6175215;28;108837;-68
2023/07/05 02:42:56;;;;;;;13.13;12.03;;;;;;;24.84;54.40;94974.91;6154891;28;110102;-70
2023/07/05 02:45:59;;;;;;;13.40;12.40;;;;;;;24.79;54.23;94975.88;6168519;28;109061;-70
2023/07/05 02:49:02;;;;;;;13.20;12.20;;;;;;;24.75;54.55;94983.00;6185919;28;109207;-69
2023/07/05 02:52:07;;;;;;;13.33;12.27;;;;;;;24.71;54.88;94987.44;6173500;28;109080;-69
2023/07/05 02:55:10;;;;;;;12.60;11.60;;;;;;;24.88;54.18;94984.66;6174675;28;109492;-71
2023/07/05 02:58:13;;;;;;;22.97;20.97;;;;;;;24.96;53.98;94991.03;6174663;28;110267;-70
2023/07/05 03:01:18;;;;;;;27.87;25.50;;;;;;;24.93;54.35;94987.13;6170267;28;109079;-70
2023/07/05 03:04:21;;;;;;;48.37;44.37;;;;;;;25.01;54.29;94980.13;6157561;28;109443;-69
2023/07/05 03:07:25;;;;;;;27.60;25.40;;;;;;;25.00;53.90;94981.25;6171538;28;109740;-70
2023/07/05 03:10:28;;;;;;;21.30;19.40;;;;;;;25.06;53.85;94978.06;6181812;28;109067;-69
2023/07/05 03:13:34;;;;;;;31.47;28.67;;;;;;;25.08;53.65;94969.72;6168561;28;109301;-70
2023/07/05 03:16:37;;;;;;;40.37;37.10;;;;;;;25.14;53.69;94976.44;6172436;28;109331;-72
2023/07/05 03:19:40;;;;;;;34.63;31.70;;;;;;;25.16;53.73;94960.81;6186787;28;109123;-69
2023/07/05 03:22:45;;;;;;;27.40;25.23;;;;;;;25.20;53.56;94959.03;6185904;28;110994;-69
2023/07/05 03:25:56;;;;;;;26.40;24.30;;;;;;;25.25;53.27;94964.22;6178743;28;109114;-69
2023/07/05 03:29:00;;;;;;;22.93;21.23;;;;;;;25.26;53.23;94965.00;6152242;28;109076;-69
2023/07/05 03:32:03;;;;;;;25.20;23.07;;;;;;;25.30;53.01;94966.69;6171345;28;109091;-69
2023/07/05 03:35:06;;;;;;;21.10;19.50;;;;;;;25.30;53.52;94964.00;6186048;28;109209;-66
2023/07/05 03:38:11;;;;;;;19.83;18.23;;;;;;;25.29;53.46;94956.31;6174594;28;109706;-66
2023/07/05 03:41:17;;;;;;;25.77;23.63;;;;;;;25.33;53.27;94952.63;6162515;28;109077;-66
2023/07/05 03:44:22;;;;;;;21.13;19.53;;;;;;;25.36;52.96;94964.59;6164347;28;108817;-66
2023/07/05 03:47:25;;;;;;;18.77;17.00;;;;;;;25.36;53.04;94970.75;6186300;28;109055;-66
2023/07/05 03:50:28;;;;;;;18.97;17.37;;;;;;;25.37;53.46;94963.50;6160107;28;109244;-66
2023/07/05 03:53:34;;;;;;;18.40;16.90;;;;;;;25.33;53.43;94957.22;6177018;28;109483;-64
2023/07/05 03:56:37;;;;;;;21.73;19.43;;;;;;;25.19;53.55;94956.69;6164237;28;108903;-68
2023/07/05 03:59:40;;;;;;;20.20;18.70;;;;;;;25.21;53.92;94955.28;6167348;28;109388;-67
2023/07/05 04:02:43;;;;;;;28.87;26.47;;;;;;;25.31;53.43;94959.44;6173766;28;109529;-66
2023/07/05 04:05:47;;;;;;;23.27;21.07;;;;;;;25.28;53.58;94965.44;6165465;28;109467;-66
2023/07/05 04:08:51;;;;;;;17.10;15.60;;;;;;;25.29;54.62;94970.47;6186173;28;109191;-68
2023/07/05 04:11:54;;;;;;;17.97;16.20;;;;;;;25.32;54.46;94977.06;6183291;28;109245;-65
2023/07/05 04:14:57;;;;;;;17.70;16.20;;;;;;;25.34;54.07;94972.16;6179862;28;109541;-66
2023/07/05 04:18:01;;;;;;;16.03;14.83;;;;;;;25.34;53.85;94974.84;6171873;28;109053;-67
2023/07/05 04:21:04;;;;;;;17.87;16.53;;;;;;;25.37;54.11;94980.38;6180384;28;109230;-68
2023/07/05 04:24:09;;;;;;;17.27;15.80;;;;;;;25.39;54.09;94985.41;6179344;28;109069;-66
2023/07/05 04:27:12;;;;;;;29.30;26.43;;;;;;;25.36;53.91;94983.38;6184530;28;110852;-66
2023/07/05 04:30:15;;;;;;;20.00;18.00;;;;;;;25.18;54.70;94987.25;6184980;28;109152;-66
2023/07/05 04:33:18;;;;;;;16.93;15.63;;;;;;;25.07;54.91;94987.66;6180952;28;108926;-67
2023/07/05 04:36:21;;;;;;;16.23;14.67;;;;;;;25.16;54.37;94989.47;6172044;28;109194;-67
2023/07/05 04:39:31;;;;;;;16.17;14.63;;;;;;;25.20;54.60;94996.53;6166110;28;109391;-65
2023/07/05 04:42:35;;;;;;;16.03;14.83;;;;;;;25.17;54.46;95004.44;6164744;28;111005;-69
2023/07/05 04:45:38;;;;;;;16.40;14.90;;;;;;;25.21;54.47;95000.81;6182161;28;109077;-69
2023/07/05 04:48:41;;;;;;;15.57;14.27;;;;;;;24.88;54.92;94995.34;6153107;28;110485;-69
2023/07/05 04:51:44;;;;;;;14.67;13.30;;;;;;;24.88;55.48;94995.34;6193075;28;109050;-70
2023/07/05 04:54:48;;;;;;;15.13;13.57;;;;;;;24.77;55.44;95000.28;6185605;28;109223;-69
2023/07/05 04:57:51;;;;;;;14.60;13.20;;;;;;;24.79;55.75;94998.06;6181424;28;110048;-69
2023/07/05 05:01:02;;;;;;;18.70;16.83;;;;;;;24.77;55.66;95002.19;6180410;28;109338;-70
2023/07/05 05:04:05;;;;;;;16.43;14.90;;;;;;;24.56;56.61;94999.44;6183795;28;109246;-71
2023/07/05 05:07:08;;;;;;;15.37;14.00;;;;;;;24.72;55.74;94999.72;6185150;28;109345;-71
2023/07/05 05:10:13;;;;;;;15.90;14.47;;;;;;;24.85;55.41;94993.31;6174519;28;109083;-71
2023/07/05 05:13:16;;;;;;;16.07;14.50;;;;;;;24.90;55.57;95001.16;6185481;28;109513;-71
2023/07/05 05:16:20;;;;;;;14.13;13.00;;;;;;;24.94;55.35;94999.41;6185285;28;109140;-72
2023/07/05 05:19:23;;;;;;;14.77;13.47;;;;;;;24.91;55.68;95000.06;6185067;28;109134;-70
2023/07/05 05:22:26;;;;;;;16.33;14.77;;;;;;;24.85;56.14;94997.88;6174406;28;109636;-70
2023/07/05 05:25:31;;;;;;;14.70;13.50;;;;;;;24.81;56.10;95003.09;6184679;28;109094;-70
2023/07/05 05:28:34;;;;;;;14.70;13.30;;;;;;;25.02;55.29;95006.59;6184849;28;109288;-70
2023/07/05 05:31:37;;;;;;;15.73;14.27;;;;;;;25.12;54.83;95010.00;6183923;28;109381;-65
2023/07/05 05:34:41;;;;;;;14.90;13.40;;;;;;;25.17;55.16;95015.16;6175147;28;109182;-70
2023/07/05 05:37:44;;;;;;;15.53;14.30;;;;;;;25.19;55.35;95011.03;6185261;28;109444;-70
2023/07/05 05:40:50;;;;;;;14.83;13.53;;;;;;;25.22;55.22;95017.66;6184528;28;109269;-70
2023/07/05 05:43:54;;;;;;;14.80;13.50;;;;;;;25.30;55.04;95020.25;6175332;28;109059;-69
2023/07/05 05:46:57;;;;;;;15.60;14.13;;;;;;;25.39;54.80;95022.91;6188616;28;109285;-69
2023/07/05 05:50:00;;;;;;;14.13;12.93;;;;;;;25.38;54.82;95019.47;6197432;28;110037;-70
2023/07/05 05:53:04;;;;;;;13.77;12.43;;;;;;;25.45;54.48;95029.63;6213315;28;109747;-70
2023/07/05 05:56:09;;;;;;;14.00;12.70;;;;;;;25.48;54.67;95023.63;6203516;28;109716;-72
2023/07/05 05:59:12;;;;;;;13.60;12.60;;;;;;;25.53;54.50;95019.94;6213555;28;109768;-70
2023/07/05 06:02:17;;;;;;;14.40;13.20;;;;;;;25.55;54.23;95031.16;6213797;28;109434;-70
2023/07/05 06:05:20;;;;;;;13.90;12.60;;;;;;;25.59;53.82;95022.13;6212147;28;109335;-67
2023/07/05 06:08:24;;;;;;;14.00;12.90;;;;;;;25.63;53.85;95025.69;6202114;28;109228;-66
2023/07/05 06:11:28;;;;;;;14.73;13.33;;;;;;;25.65;53.75;95017.31;6212893;28;109063;-67
2023/07/05 06:14:31;;;;;;;15.17;13.87;;;;;;;25.69;54.35;95018.22;6213056;28;109060;-66
2023/07/05 06:17:34;;;;;;;13.53;12.47;;;;;;;25.78;53.70;95005.53;6207916;28;109122;-66
2023/07/05 06:20:38;;;;;;;13.33;12.33;;;;;;;25.90;54.83;95007.50;6194305;28;110028;-66
2023/07/05 06:23:41;;;;;;;14.73;13.43;;;;;;;25.98;54.86;95006.59;6188645;28;109324;-66
2023/07/05 06:26:46;;;;;;;14.63;13.27;;;;;;;25.98;54.87;95010.06;6188148;28;109405;-66
2023/07/05 06:29:49;;;;;;;17.00;13.90;;;;;;;25.97;55.16;95003.13;6177735;28;108727;-66
2023/07/05 06:32:52;;;;;;;16.90;15.20;;;;;;;25.94;55.63;95000.34;6188340;28;108915;-66
2023/07/05 06:36:00;;;;;;;15.00;13.40;;;;;;;25.91;55.25;94996.44;6187429;28;109066;-66
2023/07/05 06:39:04;;;;;;;14.90;13.67;;;;;;;25.88;55.85;94994.41;6188384;28;110136;-66
2023/07/05 06:42:08;;;;;;;13.20;12.10;;;;;;;26.02;54.95;94996.81;6177518;28;109456;-66
2023/07/05 06:45:12;;;;;;;14.60;13.30;;;;;;;26.08;54.57;94984.78;6187977;28;109304;-67
2023/07/05 06:48:15;;;;;;;14.70;13.40;;;;;;;26.18;54.52;94987.00;6187797;28;109135;-67
2023/07/05 06:51:18;;;;;;;14.77;13.40;;;;;;;26.21;54.34;94990.91;6204156;28;111765;-67
2023/07/05 06:54:22;;;;;;;14.23;13.10;;;;;;;26.19;54.52;94999.28;6206622;28;109026;-66
2023/07/05 06:57:27;;;;;;;19.60;12.93;;;;;;;26.26;54.73;94988.03;6212604;28;109459;-67
2023/07/05 07:00:30;;;;;;;17.13;13.10;;;;;;;26.31;54.87;94992.41;6212526;28;109125;-67
2023/07/05 07:03:33;;;;;;;14.00;12.80;;;;;;;26.31;54.65;94989.72;6198488;28;109270;-66
2023/07/05 07:06:36;;;;;;;13.00;12.07;;;;;;;26.36;53.95;94984.13;6185818;28;108725;-66
2023/07/05 07:09:40;;;;;;;13.83;12.73;;;;;;;26.52;54.21;94990.38;6187718;28;109062;-67
2023/07/05 07:12:45;;;;;;;13.60;12.23;;;;;;;26.51;53.52;94983.44;6187363;28;109071;-67
2023/07/05 07:15:48;;;;;;;13.63;12.63;;;;;;;26.49;53.51;94991.06;6177013;28;109150;-65
2023/07/05 07:18:51;;;;;;;14.43;13.20;;;;;;;26.63;54.27;94993.41;6187871;28;109477;-67
2023/07/05 07:21:54;;;;;;;14.33;13.13;;;;;;;26.60;53.40;94989.50;6187617;28;109053;-65
2023/07/05 07:24:57;;;;;;;14.80;13.70;;;;;;;26.73;53.48;94988.41;6187576;28;108818;-65
2023/07/05 07:28:05;;;;;;;13.50;12.30;;;;;;;26.80;53.68;94985.94;6176508;28;109550;-59
2023/07/05 07:31:13;;;;;;;15.27;13.87;;;;;;;26.90;54.12;94983.94;6187527;28;110911;-65
2023/07/05 07:34:17;;;;;;;13.63;12.63;;;;;;;26.94;53.18;94974.84;6187110;28;109075;-65
2023/07/05 07:37:20;;;;;;;13.67;12.37;;;;;;;26.98;53.46;94977.63;6179730;28;109054;-67
2023/07/05 07:40:23;;;;;;;14.80;13.50;;;;;;;26.98;53.23;94974.94;6184406;28;109032;-66
2023/07/05 07:43:27;;;;;;;13.70;12.70;;;;;;;27.01;53.59;94966.22;6188153;28;109826;-59
2023/07/05 07:46:32;;;;;;;14.43;12.83;;;;;;;26.96;53.44;94964.53;6186794;28;108971;-63
2023/07/05 07:49:36;;;;;;;14.50;13.30;;;;;;;26.88;53.40;94965.44;6180041;28;109046;-62
2023/07/05 07:52:39;;;;;;;14.13;13.03;;;;;;;26.86;54.26;94967.69;6211574;28;109222;-62
2023/07/05 07:55:42;;;;;;;14.60;13.40;;;;;;;26.74;53.96;94965.81;6211333;28;109150;-63
2023/07/05 07:58:50;;;;;;;13.57;12.57;;;;;;;26.86;54.26;94962.31;6211271;28;109053;-63
2023/07/05 08:01:53;;;;;;;14.17;12.97;;;;;;;26.96;54.06;94963.78;6200802;28;108836;-63
2023/07/05 08:04:56;;;;;;;14.03;12.80;;;;;;;27.00;54.33;94961.97;6211349;28;108754;-63
2023/07/05 08:07:59;;;;;;;14.93;13.73;;;;;;;27.04;53.81;94954.78;6209584;28;109301;-63
2023/07/05 08:11:03;;;;;;;15.10;13.90;;;;;;;27.06;53.48;94957.94;6206403;28;109161;-64
2023/07/05 08:14:08;;;;;;;14.40;13.40;;;;;;;27.08;54.02;94961.84;6205808;28;109296;-62
2023/07/05 08:17:12;;;;;;;13.80;12.67;;;;;;;27.14;53.70;94957.00;6211103;28;109127;-63
2023/07/05 08:20:15;;;;;;;14.60;13.40;;;;;;;27.15;53.01;94962.03;6201689;28;108906;-63
2023/07/05 08:23:18;;;;;;;14.83;13.53;;;;;;;27.17;53.35;94967.06;6175379;28;110324;-71
2023/07/05 08:26:22;;;;;;;14.83;13.43;;;;;;;27.14;53.22;94963.16;6186237;28;108767;-69
2023/07/05 08:29:26;;;;;;;14.63;13.50;;;;;;;27.17;53.21;94956.31;6186737;28;108831;-69
2023/07/05 08:32:29;;;;;;;15.17;13.90;;;;;;;27.17;52.49;94959.00;6186112;28;108998;-69
2023/07/05 08:35:35;;;;;;;15.23;13.70;;;;;;;27.22;51.58;94958.78;6177018;28;109597;-69
2023/07/05 08:38:40;;;;;;;13.80;12.67;;;;;;;27.25;50.95;94962.69;6185093;28;109241;-70
2023/07/05 08:42:21;;;;;;;14.53;13.23;;;;;;;27.29;50.67;94959.00;6185815;28;109252;-69
2023/07/05 08:45:32;;;;;;;14.10;12.67;;;;;;;27.20;51.13;94957.53;6140511;28;109358;-69
2023/07/05 08:48:36;;;;;;;15.63;14.33;;;;;;;27.10;51.61;94954.22;6183279;28;109814;-70
2023/07/05 08:51:40;;;;;;;15.70;14.40;;;;;;;27.14;51.45;94947.03;6206952;28;110242;-71
2023/07/05 08:54:45;;;;;;;14.63;13.53;;;;;;;27.21;51.30;94941.06;6209993;28;109547;-71
2023/07/05 08:57:52;;;;;;;13.70;12.70;;;;;;;27.19;51.24;94937.94;6199473;28;110281;-72
2023/07/05 09:01:01;;;;;;;15.60;14.40;;;;;;;27.08;51.98;94937.66;6210449;28;109282;-71
2023/07/05 09:04:04;;;;;;;15.50;14.17;;;;;;;27.21;51.36;94935.69;6209882;28;109169;-70
2023/07/05 09:07:22;;;;;;;13.47;12.43;;;;;;;27.27;51.42;94928.22;6210324;28;109100;-69
2023/07/05 09:10:34;;;;;;;11.80;10.90;;;;;;;27.30;50.93;94922.94;6198067;28;109085;-70
2023/07/05 09:13:39;;;;;;;13.37;12.27;;;;;;;27.24;51.37;94916.22;6210113;28;109084;-70
2023/07/05 09:16:50;;;;;;;12.20;11.30;;;;;;;27.26;51.42;94923.97;6210028;28;109173;-72
2023/07/05 09:20:01;;;;;;;13.53;12.23;;;;;;;27.22;50.84;94917.66;6195622;28;109273;-70
2023/07/05 09:23:10;;;;;;;12.30;11.13;;;;;;;27.11;51.36;94917.41;6189238;28;109084;-71
2023/07/05 09:26:25;;;;;;;13.23;11.77;;;;;;;27.09;50.35;94912.38;6189318;28;109180;-71
2023/07/05 09:29:32;;;;;;;13.37;12.07;;;;;;;27.06;50.88;94912.28;6189481;28;109251;-68
2023/07/05 09:32:39;;;;;;;13.07;12.00;;;;;;;27.02;51.71;94903.31;6179299;28;109323;-69
2023/07/05 09:35:46;;;;;;;12.63;11.63;;;;;;;27.00;51.23;94900.19;6189700;28;109129;-70
2023/07/05 09:38:56;;;;;;;12.30;11.10;;;;;;;26.96;51.55;94907.38;6189387;28;109080;-70
2023/07/05 09:42:03;;;;;;;12.10;11.10;;;;;;;27.03;51.42;94904.88;6183227;28;109103;-69
2023/07/05 09:45:12;;;;;;;12.63;11.63;;;;;;;26.98;51.36;94900.53;6183804;28;109985;-70
2023/07/05 09:48:18;;;;;;;11.73;10.83;;;;;;;26.93;51.71;94892.72;6189380;28;109112;-71
2023/07/05 09:51:22;;;;;;;12.33;11.13;;;;;;;26.92;51.97;94891.16;6207440;28;109002;-70
2023/07/05 09:54:30;;;;;;;12.57;11.50;;;;;;;26.91;51.67;94896.88;6202677;28;109121;-68
2023/07/05 09:57:35;;;;;;;11.87;10.87;;;;;;;26.88;51.69;94898.31;6213540;28;109124;-69
2023/07/05 10:00:39;;;;;;;10.87;10.07;;;;;;;26.84;51.64;94886.69;6213682;28;108733;-69
2023/07/05 10:03:52;;;;;;;11.53;10.63;;;;;;;26.79;51.51;94892.31;6213334;28;109941;-69
2023/07/05 10:06:56;;;;;;;13.40;12.30;;;;;;;26.77;51.99;94889.97;6203562;28;110038;-71
2023/07/05 10:10:03;;;;;;;12.23;11.23;;;;;;;26.78;51.86;94880.78;6213715;28;109391;-68
2023/07/05 10:13:14;;;;;;;11.87;10.97;;;;;;;26.74;51.73;94890.66;6212701;28;109058;-69
2023/07/05 10:16:17;;;;;;;11.33;10.43;;;;;;;26.72;51.99;94890.19;6208063;28;109526;-69
2023/07/05 10:19:27;;;;;;;12.37;11.30;;;;;;;26.71;52.17;94885.16;6206372;28;109393;-69
2023/07/05 10:22:36;;;;;;;12.70;11.90;;;;;;;26.73;52.84;94877.56;6188778;28;109436;-69
2023/07/05 10:25:41;;;;;;;13.33;12.23;;;;;;;26.71;53.02;94883.25;6188300;28;109026;-68
2023/07/05 10:28:46;;;;;;;13.20;12.20;;;;;;;26.72;53.16;94874.09;6177838;28;109194;-69
2023/07/05 10:31:54;;;;;;;20.00;18.10;;;;;;;26.67;53.57;94878.91;6188191;28;109085;-69
2023/07/05 10:35:00;;;;;;;17.07;15.77;;;;;;;26.66;52.95;94882.72;6188832;28;109422;-70
2023/07/05 10:38:03;;;;;;;17.53;16.13;;;;;;;26.67;53.18;94887.72;6188542;28;109274;-69
2023/07/05 10:41:22;;;;;;;17.20;15.90;;;;;;;26.63;53.09;94886.84;6177732;28;108925;-69
2023/07/05 10:44:30;;;;;;;15.60;14.40;;;;;;;26.61;53.48;94880.22;6187765;28;109043;-65
2023/07/05 10:47:34;;;;;;;16.40;15.10;;;;;;;26.61;53.65;94872.97;6188393;28;109515;-65
2023/07/05 10:50:39;;;;;;;14.90;13.70;;;;;;;26.61;53.59;94870.28;6191347;28;110584;-66
2023/07/05 10:53:43;;;;;;;14.33;13.17;;;;;;;26.59;53.36;94875.22;6211879;28;109158;-66
2023/07/05 10:56:48;;;;;;;14.13;13.03;;;;;;;26.60;53.46;94884.03;6212920;28;108903;-66
2023/07/05 10:59:56;;;;;;;14.10;13.00;;;;;;;26.60;53.05;94882.13;6213103;28;109064;-64
2023/07/05 11:03:10;;;;;;;13.73;12.73;;;;;;;26.57;53.36;94901.59;6201755;28;109141;-64
2023/07/05 11:06:17;;;;;;;14.77;13.57;;;;;;;26.54;53.75;94905.72;6212934;28;109920;-65
2023/07/05 11:09:21;;;;;;;13.90;12.80;;;;;;;26.54;54.15;94913.00;6212070;28;109098;-65
2023/07/05 11:12:29;;;;;;;14.23;13.20;;;;;;;26.53;53.45;94924.84;6212131;28;109039;-65
2023/07/05 11:15:32;;;;;;;18.07;16.67;;;;;;;26.46;53.37;94917.38;6202085;28;109356;-65
2023/07/05 11:18:40;;;;;;;12.87;11.67;;;;;;;26.36;53.75;94941.19;6211994;28;109962;-64
2023/07/05 11:21:47;;;;;;;12.60;11.60;;;;;;;26.35;52.71;94950.34;6213547;28;108748;-67
2023/07/05 11:24:50;;;;;;;9.63;8.63;;;;;;;25.95;51.05;94930.28;6202803;28;109091;-64
2023/07/05 11:27:55;;;;;;;9.70;7.80;;;;;;;25.76;50.83;94923.91;6212049;28;109310;-64
2023/07/05 11:30:58;;;;;;;8.10;7.30;;;;;;;25.78;51.25;94918.97;6212558;28;108921;-64
2023/07/05 11:34:41;;;;;;;8.07;7.47;;;;;;;25.60;50.37;94924.53;6212463;28;109346;-64
2023/07/05 11:37:46;;;;;;;8.67;7.77;;;;;;;25.70;50.91;94928.66;6202542;28;109277;-63
2023/07/05 11:41:00;;;;;;;7.57;6.97;;;;;;;25.76;49.93;94943.44;6212104;28;110018;-64
2023/07/05 11:44:05;;;;;;;11.27;6.90;;;;;;;25.71;51.08;94943.66;6211792;28;109054;-65
2023/07/05 11:47:10;;;;;;;7.00;6.50;;;;;;;25.60;51.71;94980.81;6205419;28;109066;-65
2023/07/05 11:50:14;;;;;;;8.60;7.67;;;;;;;25.58;54.08;94993.75;6209574;28;109387;-65
2023/07/05 11:53:20;;;;;;;10.27;7.90;;;;;;;25.26;56.55;95016.69;6212497;28;109153;-70
2023/07/05 11:56:40;;;;;;;8.80;8.00;;;;;;;25.21;57.91;95027.59;6213061;28;109550;-70
2023/07/05 11:59:56;;;;;;;9.10;7.77;;;;;;;25.24;57.65;95042.22;6201486;28;109177;-70
2023/07/05 12:03:04;;;;;;;8.37;7.63;;;;;;;25.22;58.58;95031.06;6210343;28;109064;-70
2023/07/05 12:06:17;;;;;;;8.53;7.80;;;;;;;25.17;58.48;95039.25;6211439;28;109563;-70
2023/07/05 12:09:29;;;;;;;9.40;8.20;;;;;;;24.91;59.36;95024.16;6210003;28;109095;-68
2023/07/05 12:12:38;;;;;;;8.70;7.80;;;;;;;24.66;58.85;95022.34;6204552;28;109096;-71
2023/07/05 12:15:42;;;;;;;7.27;6.63;;;;;;;25.03;57.77;95013.53;6211178;28;109376;-73
2023/07/05 12:18:48;;;;;;;8.27;7.40;;;;;;;25.27;56.99;95017.47;6210355;28;109014;-73
2023/07/05 12:21:55;;;;;;;7.53;6.83;;;;;;;25.43;56.42;95021.16;6179753;28;110046;-73
2023/07/05 12:24:59;;;;;;;10.03;7.20;;;;;;;25.60;55.85;95009.50;6186522;28;110038;-71
2023/07/05 12:28:03;;;;;;;8.13;6.43;;;;;;;25.66;55.47;94998.22;6186086;28;109393;-71
2023/07/05 12:31:10;;;;;;;7.43;6.33;;;;;;;25.77;55.03;94987.91;6186277;28;108877;-73
2023/07/05 12:34:18;;;;;;;7.10;6.40;;;;;;;25.81;55.15;94979.97;6175855;28;109223;-72
2023/07/05 12:37:31;;;;;;;7.50;6.80;;;;;;;25.85;55.06;94967.47;6186067;28;109032;-72
2023/07/05 12:40:40;;;;;;;6.50;5.90;;;;;;;25.89;55.06;94958.44;6186521;28;108984;-73
2023/07/05 12:43:47;;;;;;;6.27;5.67;;;;;;;25.95;54.61;94953.66;6181230;28;109189;-72
2023/07/05 12:46:50;;;;;;;7.10;6.60;;;;;;;25.98;53.96;94937.66;6180181;28;109578;-73
2023/07/05 12:50:04;;;;;;;7.13;6.57;;;;;;;26.00;53.89;94929.31;6190059;28;109139;-72
2023/07/05 12:53:14;;;;;;;7.07;6.57;;;;;;;26.03;53.48;94946.63;6210151;28;109213;-73
2023/07/05 12:56:20;;;;;;;6.97;6.47;;;;;;;26.04;54.09;94948.97;6200178;28;109488;-73
2023/07/05 12:59:30;;;;;;;6.60;6.10;;;;;;;26.05;53.97;94961.31;6211109;28;110412;-73
2023/07/05 13:02:44;;;;;;;7.40;6.80;;;;;;;26.07;53.87;94959.06;6209989;28;109319;-61
2023/07/05 13:05:48;;;;;;;7.07;6.50;;;;;;;26.07;53.54;94953.69;6210098;28;109223;-62
2023/07/05 13:08:54;;;;;;;6.60;6.10;;;;;;;26.10;53.83;94947.66;6200706;28;109606;-61
2023/07/05 13:12:01;;;;;;;7.63;6.93;;;;;;;26.13;53.53;94933.59;6211161;28;109391;-62
2023/07/05 13:15:06;;;;;;;7.00;6.40;;;;;;;26.18;53.00;94938.72;6210402;28;109550;-61
2023/07/05 13:18:30;;;;;;;7.50;6.90;;;;;;;26.20;53.15;94931.13;6204966;28;109256;-61
2023/07/05 13:21:39;;;;;;;7.77;6.77;;;;;;;26.21;53.00;94921.97;6184758;28;109138;-62
2023/07/05 13:24:47;;;;;;;9.30;6.67;;;;;;;26.23;52.96;94925.09;6185295;28;109463;-61
2023/07/05 13:27:54;;;;;;;7.30;6.43;;;;;;;26.25;53.06;94914.81;6185458;28;109063;-61
2023/07/05 13:31:00;;;;;;;7.00;6.50;;;;;;;26.26;52.84;94894.91;6174396;28;109719;-61
2023/07/05 13:34:06;;;;;;;6.73;6.23;;;;;;;26.26;53.19;94904.88;6185660;28;108803;-61
2023/07/05 13:37:17;;;;;;;7.17;6.53;;;;;;;26.27;53.29;94904.53;6186611;28;109389;-61
2023/07/05 13:40:29;;;;;;;6.90;6.40;;;;;;;26.27;52.99;94904.53;6181349;28;108893;-61
2023/07/05 13:43:41;;;;;;;6.80;6.30;;;;;;;26.27;52.82;94904.53;6179583;28;109311;-63
2023/07/05 13:46:47;;;;;;;7.03;6.43;;;;;;;26.26;52.56;94905.66;6186784;28;109486;-65
2023/07/05 13:49:51;;;;;;;7.10;6.60;;;;;;;26.26;52.36;94913.69;6189989;28;108938;-61
2023/07/05 13:52:54;;;;;;;6.83;6.17;;;;;;;26.25;52.25;94914.03;6199758;28;109116;-61
2023/07/05 13:55:57;;;;;;;7.63;6.93;;;;;;;26.24;52.78;94915.94;6210317;28;109132;-61
2023/07/05 13:59:03;;;;;;;8.00;7.40;;;;;;;26.24;52.67;94924.00;6210381;28;109479;-64
2023/07/05 14:02:28;;;;;;;7.30;6.77;;;;;;;26.25;52.54;94928.22;6192911;28;108840;-62
2023/07/05 14:05:31;;;;;;;8.07;7.40;;;;;;;26.25;52.58;94930.13;6199694;28;109379;-61
2023/07/05 14:08:35;;;;;;;7.93;7.33;;;;;;;26.22;52.12;94926.22;6214323;28;109108;-62
2023/07/05 14:11:41;;;;;;;7.87;7.27;;;;;;;26.25;52.21;94922.09;6214223;28;109049;-62